Time;durP1;ratioP1;P1;durP2;ratioP2;P2;SDS_P1;SDS_P2;PMS_P1;PMS_P2;Temp;Humidity;BMP_temperature;BMP_pressure;BME280_temperature;BME280_humidity;BME280_pressure;Samples;Min_cycle;Max_cycle;Signal;HPM_P1;HPM_P2
2024/01/20 00:01:47;;;;;;;26.15;14.70;;;0.30;92.90;;;;;;5092277;28;20028;-78
2024/01/20 00:04:12;;;;;;;23.70;15.40;;;0.20;93.00;;;;;;5090835;28;20027;-76
2024/01/20 00:06:38;;;;;;;24.38;15.20;;;0.20;93.10;;;;;;5090656;28;20074;-76
2024/01/20 00:09:04;;;;;;;23.58;14.38;;;0.20;93.20;;;;;;5092379;28;20046;-77
2024/01/20 00:11:29;;;;;;;23.10;14.77;;;0.20;93.20;;;;;;5092088;28;20031;-77
2024/01/20 00:13:55;;;;;;;26.50;15.35;;;0.20;93.20;;;;;;5091750;28;20024;-78
2024/01/20 00:16:21;;;;;;;23.38;14.20;;;0.10;93.30;;;;;;5092074;28;20064;-78
2024/01/20 00:18:46;;;;;;;28.77;16.38;;;0.10;93.30;;;;;;5091710;28;20033;-77
2024/01/20 00:21:12;;;;;;;22.95;13.88;;;0.10;93.30;;;;;;5092175;28;20342;-77
2024/01/20 00:23:37;;;;;;;24.83;14.85;;;0.10;93.30;;;;;;5090734;28;20172;-77
2024/01/20 00:26:03;;;;;;;24.95;14.63;;;0.10;93.10;;;;;;5090661;28;20062;-77
2024/01/20 00:28:29;;;;;;;25.67;14.73;;;0.10;92.90;;;;;;5092175;28;20020;-78
2024/01/20 00:30:55;;;;;;;25.15;14.02;;;0.10;93.00;;;;;;5090234;28;20026;-78
2024/01/20 00:33:21;;;;;;;23.42;15.77;;;0.10;93.00;;;;;;5091733;28;20032;-77
2024/01/20 00:35:47;;;;;;;25.88;15.07;;;0.10;93.00;;;;;;5091228;28;20024;-76
2024/01/20 00:38:13;;;;;;;24.35;13.75;;;0.10;92.90;;;;;;5096024;28;20020;-77
2024/01/20 00:40:39;;;;;;;22.98;14.07;;;0.10;92.90;;;;;;5094179;28;20059;-77
2024/01/20 00:43:05;;;;;;;26.02;14.77;;;0.00;92.90;;;;;;5095623;28;20111;-78
2024/01/20 00:45:31;;;;;;;26.17;14.95;;;0.00;92.90;;;;;;5095978;28;20055;-77
2024/01/20 00:47:57;;;;;;;23.67;13.70;;;0.00;92.90;;;;;;5095469;28;20055;-77
2024/01/20 00:50:23;;;;;;;22.45;12.57;;;0.00;92.80;;;;;;5102610;28;20047;-77
2024/01/20 00:52:49;;;;;;;22.33;14.75;;;0.00;92.90;;;;;;5115879;28;20125;-77
2024/01/20 00:55:14;;;;;;;23.27;14.75;;;0.00;92.80;;;;;;5115667;28;20051;-76
2024/01/20 00:57:40;;;;;;;22.02;14.15;;;0.00;92.90;;;;;;5116065;28;20049;-77
2024/01/20 01:00:09;;;;;;;26.10;13.70;;;0.00;92.80;;;;;;5116159;28;20051;-77
2024/01/20 01:02:35;;;;;;;22.58;13.73;;;0.00;92.70;;;;;;5115925;28;20016;-78
2024/01/20 01:05:01;;;;;;;23.10;14.23;;;0.00;92.80;;;;;;5115941;28;20377;-79
2024/01/20 01:07:26;;;;;;;19.83;13.55;;;0.00;92.80;;;;;;5115980;28;20055;-77
2024/01/20 01:09:52;;;;;;;20.75;13.55;;;0.00;92.80;;;;;;5115292;28;20062;-77
2024/01/20 01:12:18;;;;;;;21.58;13.65;;;0.00;92.70;;;;;;5115712;28;20027;-78
2024/01/20 01:14:43;;;;;;;22.65;13.45;;;0.00;92.60;;;;;;5115492;28;20456;-78
2024/01/20 01:17:09;;;;;;;20.80;13.02;;;0.00;92.90;;;;;;5114405;28;20024;-77
2024/01/20 01:19:35;;;;;;;23.67;14.00;;;0.00;92.70;;;;;;5114313;28;20301;-76
2024/01/20 01:22:00;;;;;;;21.80;13.38;;;0.00;92.70;;;;;;5114818;28;20372;-78
2024/01/20 01:24:26;;;;;;;22.23;13.98;;;-0.10;92.70;;;;;;5115283;28;20023;-77
2024/01/20 01:26:52;;;;;;;21.58;13.90;;;0.00;92.80;;;;;;5115089;28;20024;-77
2024/01/20 01:29:17;;;;;;;21.63;14.23;;;0.00;92.80;;;;;;5115743;28;20493;-77
2024/01/20 01:31:46;;;;;;;24.90;13.80;;;-0.10;92.70;;;;;;5114797;28;20347;-77
2024/01/20 01:34:11;;;;;;;22.35;14.05;;;-0.10;92.80;;;;;;5115054;28;20184;-77
2024/01/20 01:36:37;;;;;;;25.33;14.82;;;0.00;92.80;;;;;;5115279;28;20024;-78
2024/01/20 01:39:03;;;;;;;22.75;14.32;;;0.00;92.80;;;;;;5115170;28;20019;-78
2024/01/20 01:41:28;;;;;;;23.25;14.32;;;0.00;92.90;;;;;;5114903;28;20030;-77
2024/01/20 01:43:54;;;;;;;24.60;14.63;;;-0.10;92.80;;;;;;5114723;28;20020;-77
2024/01/20 01:46:20;;;;;;;24.08;14.52;;;-0.10;93.00;;;;;;5114985;28;20016;-77
2024/01/20 01:48:46;;;;;;;26.60;14.60;;;-0.10;93.00;;;;;;5113925;28;20020;-76
2024/01/20 01:51:12;;;;;;;22.17;14.93;;;-0.10;93.10;;;;;;5114886;28;20059;-77
2024/01/20 01:53:39;;;;;;;21.60;14.05;;;-0.10;93.00;;;;;;5108831;28;20012;-77
2024/01/20 01:56:06;;;;;;;23.52;15.40;;;-0.10;93.10;;;;;;5094384;28;20020;-77
2024/01/20 01:58:32;;;;;;;25.33;15.95;;;-0.10;93.10;;;;;;5094611;28;20027;-77
2024/01/20 02:01:16;;;;;;;22.35;13.38;;;-0.10;93.10;;;;;;5092453;28;20040;-77
2024/01/20 02:03:41;;;;;;;22.70;14.60;;;-0.10;93.10;;;;;;5092834;28;20020;-77
2024/01/20 02:06:08;;;;;;;24.95;14.20;;;-0.10;93.10;;;;;;5094430;28;20022;-77
2024/01/20 02:08:35;;;;;;;25.80;14.85;;;-0.10;93.10;;;;;;5094049;28;20024;-77
2024/01/20 02:11:02;;;;;;;26.45;15.63;;;-0.10;93.10;;;;;;5093837;28;20112;-77
2024/01/20 02:13:27;;;;;;;23.33;14.82;;;-0.10;93.00;;;;;;5094254;28;20085;-76
2024/01/20 02:15:54;;;;;;;23.50;14.88;;;-0.10;92.90;;;;;;5093807;28;20103;-77
2024/01/20 02:18:23;;;;;;;23.13;14.55;;;-0.10;92.90;;;;;;5094305;28;20099;-76
2024/01/20 02:20:49;;;;;;;26.77;14.88;;;-0.10;93.00;;;;;;5094397;28;20031;-77
2024/01/20 02:23:15;;;;;;;24.15;14.75;;;-0.10;93.00;;;;;;5094032;28;20103;-76
2024/01/20 02:25:40;;;;;;;25.88;16.10;;;-0.10;92.90;;;;;;5093940;28;20427;-76
2024/01/20 02:28:06;;;;;;;24.13;14.82;;;-0.10;93.00;;;;;;5093164;28;20363;-77
2024/01/20 02:30:31;;;;;;;26.98;15.52;;;-0.10;93.00;;;;;;5094027;28;20035;-76
2024/01/20 02:32:57;;;;;;;26.08;15.30;;;-0.10;93.10;;;;;;5093305;28;20398;-76
2024/01/20 02:35:23;;;;;;;24.25;14.27;;;-0.10;93.20;;;;;;5093745;28;20084;-76
2024/01/20 02:37:49;;;;;;;22.35;15.00;;;-0.10;93.10;;;;;;5093427;28;20024;-76
2024/01/20 02:40:15;;;;;;;23.52;15.65;;;-0.10;93.10;;;;;;5093963;28;20031;-76
2024/01/20 02:42:40;;;;;;;25.92;14.70;;;-0.10;93.10;;;;;;5094033;28;20347;-77
2024/01/20 02:45:06;;;;;;;26.50;15.20;;;-0.10;93.20;;;;;;5092277;28;20035;-78
2024/01/20 02:47:32;;;;;;;25.30;15.20;;;-0.10;93.20;;;;;;5093700;28;20020;-76
2024/01/20 02:49:57;;;;;;;24.75;15.75;;;-0.20;93.10;;;;;;5096578;28;20462;-76
2024/01/20 02:52:23;;;;;;;26.05;15.82;;;-0.10;93.30;;;;;;5113968;28;20131;-77
2024/01/20 02:54:49;;;;;;;27.73;14.20;;;-0.20;93.20;;;;;;5112351;28;20023;-77
2024/01/20 02:57:14;;;;;;;26.77;14.98;;;-0.20;93.20;;;;;;5114331;28;20023;-76
2024/01/20 02:59:40;;;;;;;24.48;15.20;;;-0.20;93.20;;;;;;5115871;28;20044;-75
2024/01/20 03:02:05;;;;;;;26.75;15.20;;;-0.20;93.30;;;;;;5115684;28;20077;-77
2024/01/20 03:04:31;;;;;;;24.33;14.35;;;-0.20;93.20;;;;;;5113401;28;20026;-77
2024/01/20 03:06:57;;;;;;;23.33;14.88;;;-0.20;93.20;;;;;;5113655;28;20345;-77
2024/01/20 03:09:22;;;;;;;22.13;15.05;;;-0.20;93.30;;;;;;5114352;28;20099;-77
2024/01/20 03:11:48;;;;;;;24.58;16.58;;;-0.20;93.30;;;;;;5113192;28;20106;-76
2024/01/20 03:14:14;;;;;;;25.00;16.05;;;-0.20;93.40;;;;;;5113617;28;20069;-76
2024/01/20 03:16:39;;;;;;;25.00;15.15;;;-0.30;93.20;;;;;;5113544;28;20023;-76
2024/01/20 03:19:06;;;;;;;24.77;15.18;;;-0.30;93.40;;;;;;5112865;28;20107;-77
2024/01/20 03:21:35;;;;;;;23.33;14.77;;;-0.20;93.40;;;;;;5113461;28;20080;-77
2024/01/20 03:24:00;;;;;;;23.88;15.15;;;-0.20;93.40;;;;;;5112886;28;20020;-77
2024/01/20 03:26:26;;;;;;;26.88;16.15;;;-0.20;93.40;;;;;;5112982;28;20027;-76
2024/01/20 03:28:51;;;;;;;24.70;14.35;;;-0.30;93.30;;;;;;5112848;28;20398;-77
2024/01/20 03:31:17;;;;;;;25.08;14.80;;;-0.20;93.20;;;;;;5112831;28;20106;-77
2024/01/20 03:33:43;;;;;;;25.30;16.35;;;-0.20;92.90;;;;;;5112960;28;20028;-76
2024/01/20 03:36:10;;;;;;;28.70;16.33;;;-0.20;93.00;;;;;;5112806;28;20059;-77
2024/01/20 03:38:36;;;;;;;26.15;15.60;;;-0.30;93.00;;;;;;5113076;28;20047;-77
2024/01/20 03:41:02;;;;;;;25.80;16.50;;;-0.30;93.00;;;;;;5113146;28;20067;-77
2024/01/20 03:43:27;;;;;;;25.92;14.63;;;-0.20;93.00;;;;;;5113107;28;20421;-77
2024/01/20 03:45:53;;;;;;;25.80;15.13;;;-0.20;92.80;;;;;;5107594;28;20091;-77
2024/01/20 03:48:19;;;;;;;23.85;15.48;;;-0.20;92.80;;;;;;5093063;28;20024;-77
2024/01/20 03:50:45;;;;;;;24.17;14.65;;;-0.20;92.80;;;;;;5091343;28;20024;-77
2024/01/20 03:53:10;;;;;;;25.60;16.80;;;-0.20;92.80;;;;;;5090849;28;20417;-76
2024/01/20 03:55:36;;;;;;;25.00;15.50;;;-0.20;92.80;;;;;;5092260;28;20016;-77
2024/01/20 03:58:02;;;;;;;21.40;13.75;;;-0.20;92.90;;;;;;5091729;28;20044;-75
2024/01/20 04:00:28;;;;;;;28.92;15.60;;;-0.20;92.90;;;;;;5092257;28;20377;-76
2024/01/20 04:02:53;;;;;;;25.42;15.27;;;-0.20;92.90;;;;;;5090787;28;20073;-76
2024/01/20 04:05:19;;;;;;;26.92;15.57;;;-0.20;92.90;;;;;;5093173;28;20048;-77
2024/01/20 04:07:46;;;;;;;24.63;15.00;;;-0.20;92.90;;;;;;5092494;28;20070;-76
2024/01/20 04:10:12;;;;;;;25.63;15.98;;;-0.20;92.90;;;;;;5091651;28;20166;-78
2024/01/20 04:12:39;;;;;;;24.17;14.85;;;-0.30;92.90;;;;;;5092083;28;20440;-77
2024/01/20 04:15:05;;;;;;;22.58;15.10;;;-0.30;92.90;;;;;;5095320;28;20036;-77
2024/01/20 04:17:31;;;;;;;24.17;14.77;;;-0.20;92.80;;;;;;5100489;28;20073;-77
2024/01/20 04:19:56;;;;;;;20.40;14.10;;;-0.20;92.80;;;;;;5093199;28;20440;-76
2024/01/20 04:22:22;;;;;;;23.80;14.63;;;-0.20;92.70;;;;;;5093156;28;20031;-77
2024/01/20 04:24:47;;;;;;;22.33;14.25;;;-0.20;92.90;;;;;;5092898;28;20053;-77
2024/01/20 04:27:13;;;;;;;23.65;14.30;;;-0.20;92.60;;;;;;5090976;28;20023;-77
2024/01/20 04:29:39;;;;;;;23.00;13.85;;;-0.20;92.50;;;;;;5092478;28;20448;-76
2024/01/20 04:32:05;;;;;;;21.20;13.23;;;-0.30;92.50;;;;;;5091937;28;20027;-76
2024/01/20 04:34:30;;;;;;;20.85;13.95;;;-0.30;92.50;;;;;;5092166;28;20020;-77
2024/01/20 04:36:56;;;;;;;21.27;14.10;;;-0.20;92.40;;;;;;5091788;28;20425;-77
2024/01/20 04:39:21;;;;;;;19.67;13.15;;;-0.30;92.40;;;;;;5092048;28;20038;-77
2024/01/20 04:41:47;;;;;;;22.45;13.60;;;-0.30;92.40;;;;;;5092224;28;20110;-78
2024/01/20 04:44:13;;;;;;;20.95;12.63;;;-0.30;92.40;;;;;;5091192;28;20417;-77
2024/01/20 04:46:38;;;;;;;22.42;13.10;;;-0.30;92.20;;;;;;5109377;28;20026;-77
2024/01/20 04:49:04;;;;;;;21.70;12.63;;;-0.20;92.20;;;;;;5110679;28;20400;-77
2024/01/20 04:51:29;;;;;;;22.23;13.70;;;-0.20;92.20;;;;;;5099896;28;20108;-77
2024/01/20 04:53:55;;;;;;;23.60;12.65;;;-0.30;92.20;;;;;;5091333;28;20085;-77
2024/01/20 04:56:22;;;;;;;21.90;13.20;;;-0.30;92.10;;;;;;5090405;28;20073;-76
2024/01/20 04:58:51;;;;;;;20.73;12.25;;;-0.30;92.10;;;;;;5092076;28;20024;-76
2024/01/20 05:01:18;;;;;;;20.35;12.45;;;-0.20;92.10;;;;;;5090599;28;20040;-76
2024/01/20 05:03:43;;;;;;;17.38;11.00;;;-0.20;91.90;;;;;;5091674;28;20023;-76
2024/01/20 05:06:09;;;;;;;21.17;12.25;;;-0.20;91.70;;;;;;5091411;28;20020;-77
2024/01/20 05:08:34;;;;;;;21.42;12.60;;;-0.20;91.50;;;;;;5091398;28;20372;-76
2024/01/20 05:11:00;;;;;;;19.23;11.82;;;-0.20;91.50;;;;;;5090763;28;20027;-77
2024/01/20 05:13:26;;;;;;;19.15;12.00;;;-0.20;91.70;;;;;;5091846;28;20020;-77
2024/01/20 05:15:53;;;;;;;21.20;11.52;;;-0.20;91.50;;;;;;5091804;28;20027;-76
2024/01/20 05:18:19;;;;;;;18.83;12.02;;;-0.20;91.40;;;;;;5091215;28;20128;-76
2024/01/20 05:20:45;;;;;;;18.88;12.38;;;-0.20;91.30;;;;;;5091660;28;20127;-76
2024/01/20 05:23:10;;;;;;;21.90;13.02;;;-0.20;91.40;;;;;;5092692;28;20469;-78
2024/01/20 05:25:36;;;;;;;23.23;12.98;;;-0.20;91.20;;;;;;5095296;28;20441;-77
2024/01/20 05:28:02;;;;;;;20.58;12.25;;;-0.20;91.20;;;;;;5094741;28;20411;-77
2024/01/20 05:30:27;;;;;;;16.98;11.23;;;-0.20;91.30;;;;;;5094283;28;20065;-77
2024/01/20 05:32:53;;;;;;;19.65;11.27;;;-0.20;91.30;;;;;;5094672;28;20027;-77
2024/01/20 05:35:19;;;;;;;18.55;11.23;;;-0.20;91.40;;;;;;5095667;28;20032;-77
2024/01/20 05:37:44;;;;;;;16.17;11.02;;;-0.20;91.40;;;;;;5093708;28;20073;-79
2024/01/20 05:40:10;;;;;;;18.73;11.20;;;-0.20;91.30;;;;;;5094866;28;20027;-76
2024/01/20 05:42:36;;;;;;;19.98;11.65;;;-0.20;91.30;;;;;;5093649;28;20027;-77
2024/01/20 05:45:02;;;;;;;21.05;12.05;;;-0.20;91.30;;;;;;5094612;28;20016;-78
2024/01/20 05:47:28;;;;;;;19.00;11.43;;;-0.20;91.20;;;;;;5095265;28;20039;-77
2024/01/20 05:49:53;;;;;;;16.08;11.10;;;-0.20;91.20;;;;;;5094864;28;20028;-77
2024/01/20 05:52:19;;;;;;;19.25;11.52;;;-0.20;91.20;;;;;;5093969;28;20225;-78
2024/01/20 05:54:44;;;;;;;18.35;10.65;;;-0.20;91.20;;;;;;5094330;28;20479;-76
2024/01/20 05:57:10;;;;;;;19.70;11.75;;;-0.20;91.20;;;;;;5094198;28;20048;-78
2024/01/20 05:59:36;;;;;;;19.08;10.93;;;-0.10;91.20;;;;;;5093994;28;20044;-76
2024/01/20 06:02:02;;;;;;;16.35;10.98;;;-0.10;91.10;;;;;;5094409;28;20078;-78
2024/01/20 06:04:27;;;;;;;18.52;11.82;;;-0.20;91.10;;;;;;5093048;28;20364;-77
2024/01/20 06:06:53;;;;;;;20.65;12.15;;;-0.20;91.10;;;;;;5094648;28;20028;-77
2024/01/20 06:09:19;;;;;;;19.00;12.23;;;-0.20;91.10;;;;;;5094122;28;20351;-78
2024/01/20 06:11:44;;;;;;;17.13;11.45;;;-0.20;91.20;;;;;;5094214;28;20470;-77
2024/01/20 06:14:10;;;;;;;19.75;11.75;;;-0.20;91.30;;;;;;5095171;28;20028;-75
2024/01/20 06:16:38;;;;;;;17.45;11.63;;;-0.20;91.20;;;;;;5099677;28;20149;-76
2024/01/20 06:19:05;;;;;;;19.50;11.38;;;-0.20;91.20;;;;;;5094937;28;20028;-77
2024/01/20 06:21:31;;;;;;;18.33;10.93;;;-0.20;91.20;;;;;;5094145;28;20024;-75
2024/01/20 06:23:56;;;;;;;19.27;11.25;;;-0.20;91.10;;;;;;5093973;28;20016;-77
2024/01/20 06:26:22;;;;;;;18.77;11.88;;;-0.20;91.10;;;;;;5093306;28;20039;-76
2024/01/20 06:28:48;;;;;;;18.60;10.98;;;-0.20;91.20;;;;;;5093682;28;20373;-75
2024/01/20 06:31:27;;;;;;;18.63;12.50;;;-0.20;91.30;;;;;;5093265;28;20483;-74
2024/01/20 06:33:53;;;;;;;18.85;12.32;;;-0.20;91.10;;;;;;5093557;28;20103;-76
2024/01/20 06:36:25;;;;;;;19.73;12.10;;;-0.20;91.20;;;;;;5092025;28;20024;-75
2024/01/20 06:38:51;;;;;;;18.30;12.13;;;-0.20;91.20;;;;;;5075436;28;20042;-76
2024/01/20 06:41:16;;;;;;;19.45;11.68;;;-0.20;91.20;;;;;;5091247;28;20024;-75
2024/01/20 06:43:43;;;;;;;21.98;12.98;;;-0.20;91.10;;;;;;5092982;28;20046;-76
2024/01/20 06:46:09;;;;;;;21.67;12.77;;;-0.20;91.10;;;;;;5092276;28;20026;-76
2024/01/20 06:48:35;;;;;;;18.58;11.90;;;-0.20;91.10;;;;;;5092859;28;20527;-76
2024/01/20 06:51:01;;;;;;;19.60;11.68;;;-0.30;91.10;;;;;;5093715;28;20051;-76
2024/01/20 06:53:30;;;;;;;18.67;12.02;;;-0.20;91.20;;;;;;5092486;28;20406;-77
2024/01/20 06:55:56;;;;;;;19.42;11.75;;;-0.30;91.10;;;;;;5092922;28;20012;-76
2024/01/20 06:58:22;;;;;;;21.52;12.85;;;-0.30;91.20;;;;;;5093076;28;20065;-75
2024/01/20 07:00:48;;;;;;;21.05;11.63;;;-0.30;91.20;;;;;;5092612;28;20126;-74
2024/01/20 07:03:14;;;;;;;19.58;11.70;;;-0.20;91.00;;;;;;5091990;28;20210;-74
2024/01/20 07:05:40;;;;;;;20.45;12.23;;;-0.20;91.00;;;;;;5092654;28;20062;-74
2024/01/20 07:08:06;;;;;;;19.80;12.05;;;-0.30;91.00;;;;;;5090473;28;20409;-76
2024/01/20 07:10:32;;;;;;;20.05;11.23;;;-0.20;91.10;;;;;;5092088;28;20341;-75
2024/01/20 07:12:58;;;;;;;21.88;11.75;;;-0.20;91.00;;;;;;5091946;28;20050;-75
2024/01/20 07:15:23;;;;;;;19.73;11.95;;;-0.20;90.80;;;;;;5092373;28;20070;-74
2024/01/20 07:17:49;;;;;;;18.65;11.93;;;-0.20;90.70;;;;;;5092609;28;20441;-74
2024/01/20 07:20:15;;;;;;;17.90;10.93;;;-0.10;90.60;;;;;;5091607;28;20125;-75
2024/01/20 07:22:41;;;;;;;16.75;11.40;;;-0.10;90.50;;;;;;5091982;28;20176;-73
2024/01/20 07:25:10;;;;;;;17.48;11.63;;;-0.10;90.40;;;;;;5092093;28;20028;-76
2024/01/20 07:27:36;;;;;;;16.80;11.48;;;-0.10;90.20;;;;;;5091906;28;20328;-74
2024/01/20 07:30:02;;;;;;;16.40;10.38;;;0.00;90.10;;;;;;5092625;28;20019;-75
2024/01/20 07:32:27;;;;;;;15.35;10.30;;;0.00;90.10;;;;;;5090662;28;20032;-76
2024/01/20 07:34:53;;;;;;;13.73;10.10;;;0.00;90.00;;;;;;5092665;28;20461;-75
2024/01/20 07:37:18;;;;;;;21.08;10.98;;;0.00;89.80;;;;;;5091896;28;20085;-76
2024/01/20 07:39:44;;;;;;;18.30;11.43;;;0.00;89.60;;;;;;5092134;28;20413;-76
2024/01/20 07:42:10;;;;;;;17.38;10.30;;;0.00;89.50;;;;;;5091476;28;20024;-77
2024/01/20 07:44:36;;;;;;;18.00;10.30;;;0.00;89.50;;;;;;5092061;28;20030;-76
2024/01/20 07:47:02;;;;;;;14.98;10.27;;;0.00;89.50;;;;;;5092278;28;20076;-76
2024/01/20 07:49:28;;;;;;;17.52;10.07;;;0.00;89.30;;;;;;5092562;28;20035;-80
2024/01/20 07:51:53;;;;;;;16.20;9.35;;;0.10;89.30;;;;;;5092944;28;20461;-78
2024/01/20 07:54:19;;;;;;;15.05;9.52;;;0.10;89.30;;;;;;5092714;28;20112;-79
2024/01/20 07:56:45;;;;;;;17.30;10.00;;;0.20;88.80;;;;;;5091627;28;20026;-77
2024/01/20 07:59:10;;;;;;;18.27;10.40;;;0.10;88.60;;;;;;5091865;28;20024;-79
2024/01/20 08:01:36;;;;;;;15.70;9.30;;;0.20;88.60;;;;;;5092839;28;20066;-79
2024/01/20 08:04:02;;;;;;;15.07;9.10;;;0.30;88.40;;;;;;5092498;28;20039;-77
2024/01/20 08:06:28;;;;;;;18.60;9.98;;;0.40;88.30;;;;;;5091786;28;20016;-78
2024/01/20 08:08:53;;;;;;;17.45;10.32;;;0.70;88.20;;;;;;5092012;28;20023;-78
2024/01/20 08:11:19;;;;;;;15.68;8.85;;;0.90;87.60;;;;;;5092101;28;20478;-77
2024/01/20 08:13:44;;;;;;;15.95;8.98;;;1.10;86.10;;;;;;5091028;28;20016;-77
2024/01/20 08:16:10;;;;;;;16.55;8.30;;;1.20;85.00;;;;;;5092772;28;20091;-80
2024/01/20 08:18:36;;;;;;;13.15;7.90;;;1.30;84.20;;;;;;5092305;28;20020;-78
2024/01/20 08:21:07;;;;;;;15.73;8.60;;;1.40;83.70;;;;;;5092000;28;20024;-80
2024/01/20 08:23:33;;;;;;;12.27;7.72;;;1.40;83.00;;;;;;5089560;28;20031;-79
2024/01/20 08:25:59;;;;;;;14.23;8.70;;;1.50;82.40;;;;;;5091893;28;20457;-78
2024/01/20 08:28:25;;;;;;;11.80;7.90;;;1.50;82.00;;;;;;5091911;28;20023;-76
2024/01/20 08:30:51;;;;;;;13.60;8.13;;;1.60;81.80;;;;;;5092310;28;20444;-79
2024/01/20 08:33:17;;;;;;;12.02;8.32;;;1.60;81.10;;;;;;5091927;28;20042;-76
2024/01/20 08:35:43;;;;;;;15.18;8.85;;;1.70;80.10;;;;;;5092661;28;20020;-77
2024/01/20 08:38:08;;;;;;;13.45;7.47;;;1.70;79.70;;;;;;5093311;28;20024;-80
2024/01/20 08:40:34;;;;;;;14.75;8.98;;;1.70;79.40;;;;;;5093414;28;20039;-78
2024/01/20 08:42:59;;;;;;;16.23;7.57;;;1.80;79.10;;;;;;5092122;28;20027;-76
2024/01/20 08:45:25;;;;;;;12.07;8.25;;;1.80;78.10;;;;;;5091421;28;20031;-77
2024/01/20 08:47:51;;;;;;;13.20;7.57;;;1.90;78.20;;;;;;5091448;28;20016;-76
2024/01/20 08:50:16;;;;;;;11.55;7.25;;;1.80;77.70;;;;;;5089967;28;20027;-78
2024/01/20 08:52:42;;;;;;;13.55;7.72;;;1.90;77.40;;;;;;5091543;28;20028;-76
2024/01/20 08:55:08;;;;;;;11.20;7.22;;;1.90;77.40;;;;;;5091819;28;20024;-77
2024/01/20 08:57:34;;;;;;;14.55;7.60;;;1.90;77.40;;;;;;5095874;28;20073;-77
2024/01/20 09:00:00;;;;;;;13.45;7.75;;;1.90;77.20;;;;;;5094001;28;20071;-79
2024/01/20 09:02:26;;;;;;;12.43;6.82;;;2.00;76.70;;;;;;5095523;28;20118;-79
2024/01/20 09:04:52;;;;;;;13.82;7.63;;;2.00;76.30;;;;;;5096079;28;20065;-77
2024/01/20 09:07:18;;;;;;;13.27;6.80;;;2.00;75.90;;;;;;5094809;28;20031;-78
2024/01/20 09:09:44;;;;;;;10.60;6.38;;;2.00;76.00;;;;;;5095533;28;20074;-76
2024/01/20 09:12:09;;;;;;;15.65;7.40;;;2.00;75.30;;;;;;5095485;28;20056;-76
2024/01/20 09:14:36;;;;;;;12.52;7.18;;;2.00;75.20;;;;;;5094892;28;20118;-76
2024/01/20 09:17:02;;;;;;;12.70;6.85;;;1.90;75.10;;;;;;5095057;28;20024;-75
2024/01/20 09:19:27;;;;;;;12.98;7.10;;;2.00;75.00;;;;;;5094527;28;20020;-77
2024/01/20 09:21:53;;;;;;;13.82;7.30;;;1.90;75.20;;;;;;5093916;28;20032;-76
2024/01/20 09:24:19;;;;;;;11.70;7.22;;;2.00;75.10;;;;;;5094797;28;20095;-76
2024/01/20 09:26:44;;;;;;;11.77;7.53;;;2.00;75.20;;;;;;5094968;28;20421;-76
2024/01/20 09:29:10;;;;;;;11.98;7.30;;;2.00;75.30;;;;;;5096981;28;20361;-77
2024/01/20 09:31:36;;;;;;;15.02;7.97;;;2.00;75.20;;;;;;5098893;28;20048;-76
2024/01/20 09:34:03;;;;;;;10.07;7.53;;;2.00;75.10;;;;;;5096745;28;20500;-76
2024/01/20 09:36:28;;;;;;;14.73;8.27;;;2.10;75.00;;;;;;5094673;28;20368;-75
2024/01/20 09:38:54;;;;;;;12.48;7.72;;;2.10;74.60;;;;;;5093562;28;20024;-76
2024/01/20 09:41:20;;;;;;;16.45;8.60;;;2.10;74.90;;;;;;5094730;28;20028;-76
2024/01/20 09:43:46;;;;;;;13.52;7.88;;;2.10;74.70;;;;;;5094686;28;20360;-76
2024/01/20 09:46:12;;;;;;;12.63;7.45;;;2.20;74.40;;;;;;5094803;28;20042;-76
2024/01/20 09:48:38;;;;;;;14.13;7.10;;;2.30;73.40;;;;;;5094251;28;20441;-76
2024/01/20 09:51:03;;;;;;;11.32;7.35;;;2.30;73.00;;;;;;5093037;28;20032;-76
2024/01/20 09:53:30;;;;;;;12.95;7.43;;;2.40;73.20;;;;;;5093953;28;20428;-77
2024/01/20 09:55:57;;;;;;;10.73;7.25;;;2.40;73.70;;;;;;5094892;28;20081;-79
2024/01/20 09:58:23;;;;;;;10.45;6.97;;;2.60;73.30;;;;;;5094676;28;20020;-80
2024/01/20 10:00:51;;;;;;;11.18;7.25;;;2.70;72.80;;;;;;5094959;28;20146;-81
2024/01/20 10:03:20;;;;;;;13.88;8.00;;;2.80;71.80;;;;;;5095108;28;20447;-80
2024/01/20 10:05:46;;;;;;;11.13;6.75;;;3.00;71.80;;;;;;5095034;28;20348;-80
2024/01/20 10:08:12;;;;;;;11.93;7.32;;;3.20;70.20;;;;;;5094439;28;20020;-80
2024/01/20 10:10:38;;;;;;;13.48;6.82;;;3.40;70.10;;;;;;5094051;28;20473;-79
2024/01/20 10:13:04;;;;;;;12.75;6.78;;;3.50;69.50;;;;;;5094892;28;20056;-80
2024/01/20 10:15:30;;;;;;;10.30;6.70;;;3.60;68.60;;;;;;5094163;28;20364;-81
2024/01/20 10:17:56;;;;;;;8.85;6.18;;;3.80;68.30;;;;;;5094890;28;20027;-78
2024/01/20 10:20:31;;;;;;;14.25;6.38;;;4.00;67.50;;;;;;5093950;28;20020;-79
2024/01/20 10:23:00;;;;;;;9.68;5.88;;;4.10;66.20;;;;;;5094734;28;20452;-81
2024/01/20 10:25:26;;;;;;;10.68;6.03;;;4.20;65.30;;;;;;5094573;28;20028;-78
2024/01/20 10:27:52;;;;;;;10.50;6.63;;;4.30;64.80;;;;;;5095510;28;20020;-81
2024/01/20 10:30:20;;;;;;;11.02;6.47;;;4.50;64.40;;;;;;5094315;28;20035;-81
2024/01/20 10:32:46;;;;;;;11.30;5.95;;;4.60;64.00;;;;;;5093395;28;20024;-78
2024/01/20 10:35:13;;;;;;;8.93;6.18;;;4.70;62.90;;;;;;5094373;28;20449;-81
2024/01/20 10:37:44;;;;;;;13.93;6.68;;;4.80;62.40;;;;;;5093615;28;20020;-81
2024/01/20 10:40:13;;;;;;;;;;;5.00;62.50;;;;;;5094718;28;20051;-79
2024/01/20 10:42:52;;;;;;;8.50;5.75;;;5.10;62.20;;;;;;5093559;28;19900;-82
2024/01/20 10:45:18;;;;;;;10.90;5.97;;;5.20;61.80;;;;;;5092682;28;20020;-82
2024/01/20 10:48:01;;;;;;;10.23;5.32;;;5.30;60.00;;;;;;5093641;28;20039;-78
2024/01/20 10:50:27;;;;;;;6.75;5.18;;;5.30;59.10;;;;;;5092389;28;20031;-79
2024/01/20 10:52:52;;;;;;;8.52;5.13;;;5.40;58.70;;;;;;5095116;28;20330;-81
2024/01/20 10:55:19;;;;;;;7.55;5.47;;;5.50;58.60;;;;;;5097676;28;20028;-78
2024/01/20 10:57:46;;;;;;;6.95;5.07;;;5.50;57.60;;;;;;5100522;28;20065;-77
2024/01/20 11:00:13;;;;;;;11.05;5.47;;;5.50;56.70;;;;;;5098264;28;20040;-78
2024/01/20 11:02:40;;;;;;;10.63;5.65;;;5.60;56.20;;;;;;5094278;28;20024;-78
2024/01/20 11:05:26;;;;;;;7.38;5.40;;;5.60;56.80;;;;;;5094718;28;20102;-78
2024/01/20 11:08:25;;;;;;;8.88;5.15;;;5.60;55.70;;;;;;5094063;28;20028;-78
2024/01/20 11:10:52;;;;;;;8.00;4.97;;;5.60;55.20;;;;;;5093433;28;20028;-77
2024/01/20 11:13:18;;;;;;;9.57;5.38;;;5.60;55.00;;;;;;5093105;28;20096;-78
2024/01/20 11:15:49;;;;;;;7.10;5.05;;;5.60;54.50;;;;;;5093075;28;20461;-79
2024/01/20 11:18:16;;;;;;;;;;;5.60;55.20;;;;;;5093884;28;20024;-78
2024/01/20 11:21:00;;;;;;;7.95;5.13;;;5.60;54.70;;;;;;5090598;28;19907;-78
2024/01/20 11:23:26;;;;;;;7.47;4.85;;;5.60;55.00;;;;;;5092968;28;20098;-79
2024/01/20 11:25:52;;;;;;;8.20;4.95;;;5.70;54.80;;;;;;5093208;28;20062;-78
2024/01/20 11:28:30;;;;;;;6.78;4.57;;;5.70;53.60;;;;;;5092879;28;20120;-78
2024/01/20 11:30:56;;;;;;;6.38;4.65;;;5.70;53.60;;;;;;5092932;28;20031;-79
2024/01/20 11:33:23;;;;;;;7.03;4.80;;;5.70;53.40;;;;;;5092954;28;20028;-78
2024/01/20 11:35:52;;;;;;;8.60;5.05;;;5.70;52.50;;;;;;5093131;28;20063;-79
2024/01/20 11:38:17;;;;;;;7.45;4.60;;;5.70;52.80;;;;;;5091630;28;20114;-78
2024/01/20 11:40:43;;;;;;;7.63;4.50;;;5.60;52.10;;;;;;5092071;28;20103;-79
2024/01/20 11:43:13;;;;;;;7.13;4.20;;;5.60;52.40;;;;;;5091128;28;20020;-78
2024/01/20 11:45:39;;;;;;;8.00;4.53;;;5.60;52.20;;;;;;5092686;28;20020;-79
2024/01/20 11:48:06;;;;;;;8.35;4.78;;;5.50;52.10;;;;;;5092741;28;20024;-77
2024/01/20 11:50:32;;;;;;;6.25;4.28;;;5.40;52.00;;;;;;5091971;28;20028;-78
2024/01/20 11:52:58;;;;;;;7.82;5.15;;;5.40;52.20;;;;;;5092502;28;20055;-78
2024/01/20 11:55:24;;;;;;;6.35;4.47;;;5.40;52.60;;;;;;5093193;28;20111;-79
2024/01/20 11:57:50;;;;;;;7.47;4.65;;;5.30;52.10;;;;;;5091853;28;20120;-77
2024/01/20 12:00:16;;;;;;;7.80;4.15;;;5.30;52.30;;;;;;5092600;28;20349;-78
2024/01/20 12:02:50;;;;;;;6.72;4.75;;;5.30;52.20;;;;;;5093941;28;20104;-79
2024/01/20 12:05:16;;;;;;;9.70;4.82;;;5.30;52.40;;;;;;5093093;28;20390;-79
2024/01/20 12:07:41;;;;;;;10.40;4.40;;;5.30;52.20;;;;;;5092780;28;20020;-79
2024/01/20 12:10:07;;;;;;;7.38;4.30;;;5.40;52.60;;;;;;5092201;28;20089;-78
2024/01/20 12:12:33;;;;;;;9.50;3.95;;;5.40;52.00;;;;;;5092976;28;20059;-78
2024/01/20 12:14:59;;;;;;;11.55;4.75;;;5.50;51.90;;;;;;5092365;28;20097;-79
2024/01/20 12:17:25;;;;;;;6.35;4.25;;;5.50;51.90;;;;;;5092477;28;20024;-78
2024/01/20 12:19:51;;;;;;;6.80;4.20;;;5.60;51.70;;;;;;5092355;28;20452;-78
2024/01/20 12:22:16;;;;;;;5.75;4.00;;;5.70;50.90;;;;;;5092087;28;20111;-79
2024/01/20 12:24:48;;;;;;;5.57;3.88;;;5.70;50.60;;;;;;5091798;28;20016;-78
2024/01/20 12:27:15;;;;;;;6.90;4.50;;;5.70;50.30;;;;;;5090568;28;20024;-78
2024/01/20 12:29:41;;;;;;;9.27;3.95;;;5.70;50.10;;;;;;5093863;28;20024;-78
2024/01/20 12:32:08;;;;;;;5.38;4.32;;;5.70;49.90;;;;;;5093430;28;20031;-78
2024/01/20 12:34:33;;;;;;;8.32;3.95;;;5.70;49.80;;;;;;5096441;28;20025;-78